createdAt,value
2017-02-26T00:01:00.780Z,0
2017-02-26T00:02:11.172Z,0
2017-02-26T00:03:21.580Z,0
2017-02-26T00:04:31.989Z,0
2017-02-26T00:05:41.982Z,0
2017-02-26T00:06:52.770Z,0
2017-02-26T00:08:03.184Z,0
2017-02-26T00:09:13.581Z,0
2017-02-26T00:10:24.390Z,0
2017-02-26T00:11:35.161Z,0
2017-02-26T00:12:45.134Z,0
2017-02-26T00:13:55.510Z,0
2017-02-26T00:15:05.902Z,0
2017-02-26T00:16:16.302Z,0
2017-02-26T00:17:26.674Z,0
2017-02-26T00:18:36.652Z,0
2017-02-26T00:19:47.083Z,0
2017-02-26T00:20:57.869Z,0
2017-02-26T00:22:08.257Z,0
2017-02-26T00:23:19.036Z,0
2017-02-26T00:24:29.839Z,0
2017-02-26T00:25:39.887Z,0
2017-02-26T00:26:50.764Z,0
2017-02-26T00:28:00.765Z,0
2017-02-26T00:29:11.190Z,0
2017-02-26T00:30:21.997Z,0
2017-02-26T00:31:32.791Z,0
2017-02-26T00:32:43.573Z,0
2017-02-26T00:33:53.968Z,0
2017-02-26T00:35:04.364Z,0
2017-02-26T00:36:15.186Z,0
2017-02-26T00:37:25.572Z,0
2017-02-26T00:38:35.577Z,0
2017-02-26T00:39:46.365Z,0
2017-02-26T00:40:56.759Z,0
2017-02-26T00:42:07.568Z,0
2017-02-26T00:43:18.352Z,0
2017-02-26T00:44:29.134Z,0
2017-02-26T00:45:39.971Z,0
2017-02-26T00:46:49.962Z,0
2017-02-26T00:48:00.752Z,0
2017-02-26T00:49:11.539Z,0
2017-02-26T00:50:21.545Z,0
2017-02-26T00:51:32.355Z,0
2017-02-26T00:52:42.736Z,0
2017-02-26T00:53:53.518Z,0
2017-02-26T00:55:04.305Z,0
2017-02-26T00:56:14.701Z,0
2017-02-26T00:57:25.505Z,0
2017-02-26T00:58:35.912Z,0
2017-02-26T00:59:46.312Z,0
2017-02-26T01:00:56.328Z,0
2017-02-26T01:02:06.316Z,0
2017-02-26T01:03:17.129Z,0
2017-02-26T01:04:27.913Z,0
2017-02-26T01:05:37.896Z,0
2017-02-26T01:06:48.263Z,0
2017-02-26T01:07:58.672Z,0
2017-02-26T01:09:09.470Z,0
2017-02-26T01:10:20.248Z,0
2017-02-26T01:11:31.067Z,0
2017-02-26T01:12:41.848Z,0
2017-02-26T01:13:52.660Z,0
2017-02-26T01:15:03.043Z,0
2017-02-26T01:16:13.832Z,0
2017-02-26T01:17:24.617Z,0
2017-02-26T01:18:35.410Z,0
2017-02-26T01:19:46.201Z,0
2017-02-26T01:20:56.586Z,0
2017-02-26T01:22:06.175Z,0
2017-02-26T01:23:16.966Z,0
2017-02-26T01:24:27.756Z,0
2017-02-26T01:25:38.125Z,0
2017-02-26T01:26:47.702Z,0
2017-02-26T01:27:58.109Z,0
2017-02-26T01:29:08.493Z,0
2017-02-26T01:30:18.516Z,0
2017-02-26T01:31:29.274Z,0
2017-02-26T01:32:38.867Z,0
2017-02-26T01:33:49.266Z,0
2017-02-26T01:35:00.042Z,0
2017-02-26T01:36:10.414Z,0
2017-02-26T01:37:21.198Z,0
2017-02-26T01:38:31.563Z,0
2017-02-26T01:39:41.536Z,0
2017-02-26T01:40:52.312Z,0
2017-02-26T01:42:03.079Z,0
2017-02-26T01:43:13.476Z,0
2017-02-26T01:44:24.251Z,0
2017-02-26T01:45:34.632Z,0
2017-02-26T01:46:45.051Z,0
2017-02-26T01:47:54.630Z,0
2017-02-26T01:49:05.409Z,0
2017-02-26T01:50:15.390Z,0
2017-02-26T01:51:25.762Z,0
2017-02-26T01:52:36.137Z,0
2017-02-26T01:53:46.925Z,0
2017-02-26T01:54:57.303Z,0
2017-02-26T01:56:07.703Z,0
2017-02-26T01:57:18.101Z,0
2017-02-26T01:58:28.080Z,0
2017-02-26T01:59:38.444Z,0
2017-02-26T02:00:49.266Z,0
2017-02-26T02:01:59.701Z,0
2017-02-26T02:03:10.517Z,0
2017-02-26T02:04:21.276Z,0
2017-02-26T02:05:31.666Z,0
2017-02-26T02:06:42.458Z,0
2017-02-26T02:07:53.214Z,0
2017-02-26T02:09:04.007Z,0
2017-02-26T02:10:14.829Z,0
2017-02-26T02:11:25.238Z,0
2017-02-26T02:12:35.216Z,0
2017-02-26T02:13:45.194Z,0
2017-02-26T02:14:55.166Z,0
2017-02-26T02:16:05.561Z,0
2017-02-26T02:17:15.937Z,0
2017-02-26T02:18:25.925Z,0
2017-02-26T02:19:36.702Z,0
2017-02-26T02:20:47.104Z,0
2017-02-26T02:21:57.480Z,0
2017-02-26T02:23:07.870Z,0
2017-02-26T02:24:17.851Z,0
2017-02-26T02:25:28.220Z,0
2017-02-26T02:26:38.190Z,0
2017-02-26T02:27:48.569Z,0
2017-02-26T02:28:58.958Z,0
2017-02-26T02:30:09.339Z,0
2017-02-26T02:31:20.133Z,0
2017-02-26T02:32:30.914Z,0
2017-02-26T02:33:41.294Z,0
2017-02-26T02:34:52.071Z,0
2017-02-26T02:36:02.865Z,0
2017-02-26T02:37:13.249Z,0
2017-02-26T02:38:23.664Z,0
2017-02-26T02:39:34.445Z,0
2017-02-26T02:40:45.202Z,0
2017-02-26T02:41:55.584Z,0
2017-02-26T02:43:05.600Z,0
2017-02-26T02:44:15.986Z,0
2017-02-26T02:45:25.977Z,0
2017-02-26T02:46:36.751Z,0
2017-02-26T02:47:47.142Z,0
2017-02-26T02:48:57.898Z,0
2017-02-26T02:50:08.269Z,0
2017-02-26T02:51:19.069Z,0
2017-02-26T02:52:29.443Z,0
2017-02-26T02:53:39.831Z,0
2017-02-26T02:54:50.607Z,0
2017-02-26T02:56:00.993Z,0
2017-02-26T02:57:11.431Z,0
2017-02-26T02:58:22.220Z,0
2017-02-26T02:59:32.656Z,0
2017-02-26T03:00:43.455Z,0
2017-02-26T03:32:05.972Z,0
2017-02-26T03:33:16.393Z,0
2017-02-26T03:34:27.170Z,0
2017-02-26T03:35:37.959Z,0
2017-02-26T03:36:48.713Z,0
2017-02-26T03:37:59.546Z,0
2017-02-26T03:39:09.543Z,0
2017-02-26T03:40:20.306Z,0
2017-02-26T03:41:30.711Z,0
2017-02-26T03:42:40.694Z,0
2017-02-26T03:43:51.465Z,0
2017-02-26T03:45:02.231Z,0
2017-02-26T03:46:12.216Z,0
2017-02-26T03:47:22.620Z,0
2017-02-26T03:48:33.017Z,0
2017-02-26T03:49:42.999Z,0
2017-02-26T03:50:53.750Z,0
2017-02-26T03:52:04.541Z,0
2017-02-26T03:53:14.533Z,0
2017-02-26T03:54:24.913Z,0
2017-02-26T03:55:35.681Z,0
2017-02-26T03:56:46.038Z,0
2017-02-26T03:57:56.403Z,0
2017-02-26T03:59:06.783Z,0
2017-02-26T04:00:17.575Z,0
2017-02-26T04:01:28.340Z,0
2017-02-26T04:02:38.791Z,0
2017-02-26T04:03:49.159Z,0
2017-02-26T04:04:59.541Z,0
2017-02-26T04:06:09.934Z,0
2017-02-26T04:07:20.339Z,0
2017-02-26T04:08:30.741Z,0
2017-02-26T04:09:40.746Z,0
2017-02-26T04:10:51.587Z,0
2017-02-26T04:12:01.575Z,0
2017-02-26T04:13:12.352Z,0
2017-02-26T04:14:22.338Z,0
2017-02-26T04:15:32.707Z,0
2017-02-26T04:16:43.480Z,0
2017-02-26T04:17:53.899Z,0
2017-02-26T04:19:03.921Z,0
2017-02-26T04:20:13.936Z,0
2017-02-26T04:21:24.706Z,0
2017-02-26T04:22:35.465Z,0
2017-02-26T04:23:45.439Z,0
2017-02-26T04:24:55.829Z,0
2017-02-26T04:26:06.267Z,0
2017-02-26T04:27:16.631Z,0
2017-02-26T04:28:27.404Z,0
2017-02-26T04:29:37.048Z,0
2017-02-26T04:30:47.839Z,0
2017-02-26T04:31:58.211Z,0
2017-02-26T04:33:07.803Z,0
2017-02-26T04:34:18.568Z,0
2017-02-26T04:35:29.350Z,0
2017-02-26T04:36:40.132Z,0
2017-02-26T04:37:50.909Z,0
2017-02-26T04:39:01.673Z,0
2017-02-26T04:40:12.066Z,0
2017-02-26T04:41:22.829Z,0
2017-02-26T04:42:33.638Z,0
2017-02-26T04:43:43.617Z,0
2017-02-26T04:44:53.979Z,0
2017-02-26T04:46:03.965Z,0
2017-02-26T04:47:13.967Z,0
2017-02-26T04:48:24.350Z,0
2017-02-26T04:49:35.119Z,0
2017-02-26T04:50:45.927Z,0
2017-02-26T04:51:55.915Z,0
2017-02-26T04:53:05.912Z,0
2017-02-26T04:54:16.683Z,0
2017-02-26T04:55:27.082Z,0
2017-02-26T04:56:37.470Z,0
2017-02-26T04:57:48.237Z,0
2017-02-26T04:58:59.032Z,0
2017-02-26T05:00:09.435Z,0
2017-02-26T05:01:20.199Z,0
2017-02-26T05:02:30.977Z,0
2017-02-26T05:03:41.341Z,0
2017-02-26T05:04:52.130Z,0
2017-02-26T05:06:02.531Z,0
2017-02-26T05:07:13.341Z,0
2017-02-26T05:08:23.712Z,0
2017-02-26T05:09:34.509Z,0
2017-02-26T05:10:45.281Z,0
2017-02-26T05:11:56.057Z,0
2017-02-26T05:13:05.638Z,0
2017-02-26T05:14:16.421Z,0
2017-02-26T05:15:26.393Z,0
2017-02-26T05:16:36.764Z,0
2017-02-26T05:17:47.540Z,0
2017-02-26T05:18:58.325Z,0
2017-02-26T05:20:07.912Z,0
2017-02-26T05:21:18.293Z,0
2017-02-26T05:22:28.305Z,0
2017-02-26T05:23:39.066Z,0
2017-02-26T05:24:49.454Z,0
2017-02-26T05:26:00.259Z,0
2017-02-26T05:27:10.240Z,0
2017-02-26T05:28:20.622Z,0
2017-02-26T05:29:31.392Z,0
2017-02-26T05:30:41.772Z,0
2017-02-26T05:31:52.532Z,0
2017-02-26T05:33:02.502Z,0
2017-02-26T05:34:12.091Z,0
2017-02-26T05:35:22.499Z,0
2017-02-26T05:36:33.273Z,0
2017-02-26T05:37:43.238Z,0
2017-02-26T05:38:53.611Z,0
2017-02-26T05:40:03.595Z,0
2017-02-26T05:41:13.994Z,0
2017-02-26T05:42:24.375Z,0
2017-02-26T05:43:34.749Z,0
2017-02-26T05:44:45.109Z,0
2017-02-26T05:45:54.718Z,0
2017-02-26T05:47:05.091Z,5
2017-02-26T05:48:15.473Z,5
2017-02-26T05:49:26.249Z,5
2017-02-26T05:50:37.043Z,5
2017-02-26T05:51:47.449Z,5
2017-02-26T05:52:57.831Z,5
2017-02-26T05:54:07.431Z,5
2017-02-26T05:55:18.234Z,5
2017-02-26T05:56:29.008Z,10
2017-02-26T05:57:39.010Z,10
2017-02-26T05:58:49.793Z,10
2017-02-26T05:59:59.794Z,10
2017-02-26T06:01:10.560Z,15
2017-02-26T06:02:21.335Z,15
2017-02-26T06:03:31.364Z,15
2017-02-26T06:04:42.155Z,15
2017-02-26T06:05:52.948Z,15
2017-02-26T06:07:03.716Z,20
2017-02-26T06:08:14.101Z,20
2017-02-26T06:09:24.885Z,20
2017-02-26T06:10:35.671Z,20
2017-02-26T06:11:46.469Z,20
2017-02-26T06:12:57.232Z,25
2017-02-26T06:14:07.641Z,25
2017-02-26T06:15:18.021Z,25
2017-02-26T06:16:27.989Z,25
2017-02-26T06:17:38.018Z,25
2017-02-26T06:18:48.446Z,25
2017-02-26T06:19:58.855Z,25
2017-02-26T06:21:09.476Z,25
2017-02-26T06:22:20.249Z,30
2017-02-26T06:23:30.641Z,30
2017-02-26T06:24:40.630Z,30
2017-02-26T06:25:51.409Z,30
2017-02-26T06:27:02.175Z,30
2017-02-26T06:28:12.992Z,30
2017-02-26T06:29:23.369Z,30
2017-02-26T06:30:34.149Z,35
2017-02-26T06:31:44.542Z,35
2017-02-26T06:32:54.508Z,35
2017-02-26T06:34:04.151Z,35
2017-02-26T06:35:14.945Z,35
2017-02-26T06:36:25.349Z,40
2017-02-26T06:37:36.119Z,40
2017-02-26T06:38:46.533Z,40
2017-02-26T06:39:56.510Z,40
2017-02-26T06:41:06.501Z,40
2017-02-26T06:42:17.299Z,40
2017-02-26T06:43:27.679Z,40
2017-02-26T06:44:37.655Z,40
2017-02-26T06:45:48.052Z,40
2017-02-26T06:46:58.053Z,40
2017-02-26T06:48:08.431Z,40
2017-02-26T06:49:19.212Z,40
2017-02-26T06:50:29.609Z,40
2017-02-26T06:51:39.991Z,45
2017-02-26T06:52:50.777Z,45
2017-02-26T06:54:01.782Z,50
2017-02-26T06:55:12.565Z,50
2017-02-26T06:56:22.564Z,55
2017-02-26T06:57:32.956Z,60
2017-02-26T06:58:43.346Z,60
2017-02-26T06:59:54.139Z,65
2017-02-26T07:01:04.139Z,70
2017-02-26T07:02:14.521Z,70
2017-02-26T07:03:25.303Z,75
2017-02-26T07:04:36.095Z,75
2017-02-26T07:05:46.461Z,80
2017-02-26T07:06:57.244Z,85
2017-02-26T07:08:07.256Z,85
2017-02-26T07:09:18.022Z,90
2017-02-26T07:10:28.799Z,90
2017-02-26T07:11:39.595Z,95
2017-02-26T07:12:50.427Z,95
2017-02-26T07:14:00.818Z,95
2017-02-26T07:15:11.602Z,100
2017-02-26T07:16:22.371Z,100
2017-02-26T07:17:31.958Z,100
2017-02-26T07:18:42.730Z,100
2017-02-26T07:19:53.547Z,95
2017-02-26T07:21:04.327Z,90
2017-02-26T07:22:14.358Z,90
2017-02-26T07:23:25.148Z,90
2017-02-26T07:24:35.936Z,90
2017-02-26T07:25:46.721Z,85
2017-02-26T07:26:57.507Z,85
2017-02-26T07:28:07.504Z,85
2017-02-26T07:29:18.296Z,85
2017-02-26T07:30:28.683Z,85
2017-02-26T07:31:39.476Z,85
2017-02-26T07:32:50.261Z,85
2017-02-26T07:34:00.299Z,85
2017-02-26T07:35:11.079Z,85
2017-02-26T07:36:21.880Z,85
2017-02-26T07:37:32.652Z,85
2017-02-26T07:38:43.431Z,85
2017-02-26T07:39:53.418Z,85
2017-02-26T07:41:03.421Z,85
2017-02-26T07:42:13.426Z,90
2017-02-26T07:43:23.437Z,90
2017-02-26T07:44:33.851Z,90
2017-02-26T07:45:43.844Z,90
2017-02-26T07:46:53.835Z,90
2017-02-26T07:48:04.637Z,90
2017-02-26T07:49:14.222Z,95
2017-02-26T07:50:24.996Z,100
2017-02-26T07:51:35.429Z,95
2017-02-26T07:52:46.204Z,100
2017-02-26T07:53:56.188Z,105
2017-02-26T07:55:06.579Z,105
2017-02-26T07:56:16.170Z,110
2017-02-26T07:57:26.582Z,115
2017-02-26T07:58:37.361Z,120
2017-02-26T07:59:48.140Z,125
2017-02-26T08:00:58.908Z,130
2017-02-26T08:02:09.691Z,135
2017-02-26T08:03:20.070Z,135
2017-02-26T08:04:30.070Z,140
2017-02-26T08:05:40.441Z,145
2017-02-26T08:06:51.265Z,145
2017-02-26T08:08:01.681Z,150
2017-02-26T08:09:12.054Z,150
2017-02-26T08:10:22.810Z,150
2017-02-26T08:11:33.586Z,155
2017-02-26T08:12:44.385Z,155
2017-02-26T08:13:54.765Z,155
2017-02-26T08:15:05.559Z,155
2017-02-26T08:16:15.941Z,160
2017-02-26T08:17:26.733Z,165
2017-02-26T08:18:37.112Z,165
2017-02-26T08:19:47.514Z,170
2017-02-26T08:20:58.273Z,170
2017-02-26T08:22:09.054Z,175
2017-02-26T08:23:19.435Z,180
2017-02-26T08:24:30.217Z,185
2017-02-26T08:25:40.195Z,210
2017-02-26T08:26:50.200Z,215
2017-02-26T08:28:00.592Z,205
2017-02-26T08:29:10.201Z,205
2017-02-26T08:30:20.979Z,215
2017-02-26T08:31:31.366Z,220
2017-02-26T08:32:41.770Z,215
2017-02-26T08:33:52.572Z,220
2017-02-26T08:35:02.952Z,220
2017-02-26T08:36:13.743Z,220
2017-02-26T08:37:23.743Z,220
2017-02-26T08:38:34.527Z,220
2017-02-26T08:39:44.925Z,220
2017-02-26T08:40:55.318Z,235
2017-02-26T08:42:06.086Z,235
2017-02-26T08:43:16.913Z,235
2017-02-26T08:44:27.697Z,235
2017-02-26T08:45:38.495Z,230
2017-02-26T08:46:49.279Z,230
2017-02-26T08:48:00.047Z,240
2017-02-26T08:49:10.853Z,245
2017-02-26T08:50:21.255Z,245
2017-02-26T08:51:32.055Z,240
2017-02-26T08:52:42.862Z,245
2017-02-26T08:53:52.875Z,250
2017-02-26T08:55:03.651Z,255
2017-02-26T08:56:14.042Z,245
2017-02-26T08:57:24.439Z,235
2017-02-26T08:58:34.419Z,230
2017-02-26T08:59:45.213Z,240
2017-02-26T09:00:55.601Z,210
2017-02-26T09:02:05.640Z,205
2017-02-26T09:03:16.459Z,210
2017-02-26T09:04:26.904Z,210
2017-02-26T09:05:37.296Z,200
2017-02-26T09:06:48.162Z,205
2017-02-26T09:07:58.947Z,200
2017-02-26T09:09:09.353Z,195
2017-02-26T09:10:20.154Z,195
2017-02-26T09:11:30.160Z,205
2017-02-26T09:12:39.771Z,225
2017-02-26T09:13:50.175Z,240
2017-02-26T09:15:01.000Z,245
2017-02-26T09:16:11.777Z,240
2017-02-26T09:17:21.788Z,245
2017-02-26T09:18:31.389Z,250
2017-02-26T09:19:42.207Z,240
2017-02-26T09:20:52.623Z,245
2017-02-26T09:22:03.076Z,240
2017-02-26T09:23:13.523Z,240
2017-02-26T09:24:24.305Z,240
2017-02-26T09:25:34.303Z,235
2017-02-26T09:26:44.688Z,240
2017-02-26T09:27:54.301Z,250
2017-02-26T09:29:05.167Z,250
2017-02-26T09:30:15.571Z,255
2017-02-26T09:31:25.975Z,260
2017-02-26T09:32:36.755Z,260
2017-02-26T09:33:46.767Z,260
2017-02-26T09:34:57.149Z,265
2017-02-26T09:36:07.940Z,265
2017-02-26T09:37:18.728Z,270
2017-02-26T09:38:29.150Z,270
2017-02-26T09:39:39.947Z,265
2017-02-26T09:40:50.725Z,270
2017-02-26T09:42:01.531Z,265
2017-02-26T09:43:12.334Z,265
2017-02-26T09:44:23.157Z,240
2017-02-26T09:45:33.560Z,265
2017-02-26T09:46:43.565Z,255
2017-02-26T09:47:53.959Z,250
2017-02-26T09:49:03.934Z,255
2017-02-26T09:50:14.339Z,245
2017-02-26T09:51:25.121Z,240
2017-02-26T09:52:35.943Z,250
2017-02-26T09:53:46.330Z,240
2017-02-26T09:54:57.135Z,215
2017-02-26T09:56:07.911Z,205
2017-02-26T09:57:18.719Z,210
2017-02-26T09:58:29.520Z,205
2017-02-26T09:59:39.925Z,215
2017-02-26T10:00:50.325Z,260
2017-02-26T10:02:01.111Z,265
2017-02-26T10:03:11.919Z,245
2017-02-26T10:04:22.553Z,230
2017-02-26T10:05:33.344Z,245
2017-02-26T10:06:43.735Z,225
2017-02-26T10:07:54.508Z,235
2017-02-26T10:09:05.305Z,250
2017-02-26T10:10:16.079Z,260
2017-02-26T10:11:26.889Z,255
2017-02-26T10:12:37.308Z,255
2017-02-26T10:13:47.342Z,240
2017-02-26T10:14:58.145Z,245
2017-02-26T10:16:08.955Z,245
2017-02-26T10:17:19.375Z,245
2017-02-26T10:18:29.420Z,245
2017-02-26T10:19:39.813Z,245
2017-02-26T10:20:50.202Z,250
2017-02-26T10:22:01.004Z,260
2017-02-26T10:23:11.794Z,265
2017-02-26T10:24:22.176Z,270
2017-02-26T10:25:32.955Z,275
2017-02-26T10:26:43.363Z,265
2017-02-26T10:27:53.783Z,265
2017-02-26T10:29:04.184Z,260
2017-02-26T10:30:13.832Z,260
2017-02-26T10:31:24.240Z,255
2017-02-26T10:32:34.652Z,260
2017-02-26T10:33:45.452Z,260
2017-02-26T10:34:55.853Z,270
2017-02-26T10:36:06.254Z,255
2017-02-26T10:37:16.281Z,255
2017-02-26T10:38:26.698Z,260
2017-02-26T10:39:37.508Z,265
2017-02-26T10:40:48.291Z,265
2017-02-26T10:41:59.084Z,270
2017-02-26T10:43:09.490Z,275
2017-02-26T10:44:19.514Z,275
2017-02-26T10:45:29.908Z,275
2017-02-26T10:46:40.321Z,270
2017-02-26T10:47:49.537Z,270
2017-02-26T10:49:00.339Z,270
2017-02-26T10:50:11.166Z,260
2017-02-26T10:51:21.968Z,250
2017-02-26T10:52:32.801Z,245
2017-02-26T10:53:43.200Z,250
2017-02-26T10:54:54.026Z,250
2017-02-26T10:56:04.824Z,260
2017-02-26T10:57:15.610Z,260
2017-02-26T10:58:25.993Z,260
2017-02-26T10:59:36.028Z,270
2017-02-26T11:00:46.036Z,275
2017-02-26T11:01:56.813Z,275
2017-02-26T11:03:07.211Z,265
2017-02-26T11:04:18.037Z,255
2017-02-26T11:05:28.429Z,255
2017-02-26T11:06:39.250Z,265
2017-02-26T11:07:50.029Z,255
2017-02-26T11:09:00.023Z,245
2017-02-26T11:10:10.406Z,245
2017-02-26T11:11:21.199Z,245
2017-02-26T11:12:32.025Z,260
2017-02-26T11:13:42.441Z,270
2017-02-26T11:14:53.239Z,270
2017-02-26T11:16:04.022Z,285
2017-02-26T11:17:14.016Z,280
2017-02-26T11:18:23.643Z,265
2017-02-26T11:19:34.032Z,260
2017-02-26T11:20:44.426Z,260
2017-02-26T11:21:54.824Z,270
2017-02-26T11:23:05.613Z,270
2017-02-26T11:24:16.419Z,260
2017-02-26T11:25:26.477Z,265
2017-02-26T11:26:37.258Z,270
2017-02-26T11:27:48.036Z,270
2017-02-26T11:28:58.818Z,270
2017-02-26T11:30:09.610Z,265
2017-02-26T11:31:20.020Z,265
2017-02-26T11:32:30.443Z,265
2017-02-26T11:33:40.836Z,265
2017-02-26T11:34:51.628Z,265
2017-02-26T11:36:02.028Z,260
2017-02-26T11:37:12.411Z,265
2017-02-26T11:38:22.862Z,270
2017-02-26T11:39:33.663Z,265
2017-02-26T11:40:44.076Z,260
2017-02-26T11:41:54.494Z,255
2017-02-26T11:43:05.284Z,255
2017-02-26T11:44:15.706Z,245
2017-02-26T11:45:26.492Z,235
2017-02-26T11:46:36.552Z,230
2017-02-26T11:47:47.375Z,225
2017-02-26T11:48:57.797Z,215
2017-02-26T11:50:08.634Z,210
2017-02-26T11:51:19.438Z,210
2017-02-26T11:52:30.233Z,205
2017-02-26T11:53:40.654Z,205
2017-02-26T11:54:51.036Z,200
2017-02-26T11:56:01.427Z,200
2017-02-26T11:57:12.442Z,200
2017-02-26T11:58:23.251Z,200
2017-02-26T11:59:33.668Z,200
2017-02-26T12:00:44.479Z,200
2017-02-26T12:01:54.900Z,200
2017-02-26T12:03:05.332Z,205
2017-02-26T12:04:15.711Z,205
2017-02-26T12:05:25.352Z,200
2017-02-26T12:06:36.169Z,200
2017-02-26T12:07:46.194Z,195
2017-02-26T12:08:56.576Z,195
2017-02-26T12:10:07.414Z,190
2017-02-26T12:11:18.440Z,190
2017-02-26T12:12:28.836Z,190
2017-02-26T12:13:39.228Z,190
2017-02-26T12:14:49.622Z,195
2017-02-26T12:16:00.021Z,195
2017-02-26T12:17:10.429Z,190
2017-02-26T12:18:20.844Z,190
2017-02-26T12:19:30.425Z,190
2017-02-26T12:20:41.253Z,190
2017-02-26T12:21:51.652Z,190
2017-02-26T12:23:02.037Z,195
2017-02-26T12:24:12.432Z,200
2017-02-26T12:25:22.833Z,205
2017-02-26T12:26:33.258Z,205
2017-02-26T12:27:43.653Z,205
2017-02-26T12:28:54.052Z,200
2017-02-26T12:30:04.452Z,195
2017-02-26T12:31:15.245Z,190
2017-02-26T12:32:25.626Z,185
2017-02-26T12:33:36.015Z,180
2017-02-26T12:34:46.427Z,170
2017-02-26T12:35:56.832Z,165
2017-02-26T12:37:07.637Z,165
2017-02-26T12:38:18.439Z,160
2017-02-26T12:39:28.048Z,155
2017-02-26T12:40:38.447Z,155
2017-02-26T12:41:49.224Z,150
2017-02-26T12:43:00.007Z,150
2017-02-26T12:44:10.778Z,150
2017-02-26T12:45:21.558Z,150
2017-02-26T12:46:31.950Z,155
2017-02-26T12:47:42.777Z,155
2017-02-26T12:48:53.581Z,155
2017-02-26T12:50:04.362Z,150
2017-02-26T12:51:15.153Z,145
2017-02-26T12:52:25.929Z,150
2017-02-26T12:53:36.727Z,155
2017-02-26T12:54:47.528Z,160
2017-02-26T12:55:57.905Z,165
2017-02-26T12:57:08.293Z,170
2017-02-26T12:58:18.695Z,170
2017-02-26T12:59:28.699Z,170
2017-02-26T13:00:39.113Z,175
2017-02-26T13:01:49.532Z,170
2017-02-26T13:02:59.945Z,175
2017-02-26T13:04:09.941Z,175
2017-02-26T13:05:20.337Z,175
2017-02-26T13:06:31.113Z,170
2017-02-26T13:07:41.497Z,170
2017-02-26T13:08:51.879Z,170
2017-02-26T13:10:02.670Z,170
2017-02-26T13:11:13.046Z,170
2017-02-26T13:12:23.832Z,170
2017-02-26T13:13:34.624Z,170
2017-02-26T13:14:45.081Z,175
2017-02-26T13:15:56.100Z,175
2017-02-26T13:17:06.764Z,175
2017-02-26T13:18:17.549Z,180
2017-02-26T13:19:28.343Z,180
2017-02-26T13:20:39.151Z,175
2017-02-26T13:21:49.945Z,180
2017-02-26T13:23:00.335Z,175
2017-02-26T13:24:10.380Z,175
2017-02-26T13:25:20.777Z,170
2017-02-26T13:26:31.605Z,170
2017-02-26T13:27:42.382Z,170
2017-02-26T13:28:52.797Z,170
2017-02-26T13:30:03.615Z,165
2017-02-26T13:31:14.427Z,165
2017-02-26T13:32:24.833Z,165
2017-02-26T13:33:35.615Z,165
2017-02-26T13:34:46.001Z,160
2017-02-26T13:35:56.022Z,160
2017-02-26T13:37:06.824Z,155
2017-02-26T13:38:17.217Z,155
2017-02-26T13:39:27.226Z,150
2017-02-26T13:40:38.014Z,145
2017-02-26T13:41:48.792Z,145
2017-02-26T13:42:58.794Z,140
2017-02-26T13:44:08.825Z,135
2017-02-26T13:45:19.616Z,135
2017-02-26T13:46:30.393Z,135
2017-02-26T13:47:41.181Z,135
2017-02-26T13:48:51.983Z,135
2017-02-26T13:50:02.793Z,135
2017-02-26T13:51:13.221Z,135
2017-02-26T13:52:24.014Z,130
2017-02-26T13:53:34.810Z,130
2017-02-26T13:54:45.204Z,130
2017-02-26T13:55:55.589Z,130
2017-02-26T13:57:06.395Z,125
2017-02-26T13:58:16.804Z,130
2017-02-26T13:59:27.584Z,130
2017-02-26T14:00:38.371Z,130
2017-02-26T14:01:49.172Z,135
2017-02-26T14:02:59.975Z,135
2017-02-26T14:04:10.743Z,140
2017-02-26T14:05:20.773Z,140
2017-02-26T14:06:31.566Z,140
2017-02-26T14:07:42.359Z,140
2017-02-26T14:08:53.183Z,135
2017-02-26T14:10:03.981Z,135
2017-02-26T14:11:13.959Z,135
2017-02-26T14:12:23.967Z,135
2017-02-26T14:13:34.381Z,135
2017-02-26T14:14:45.167Z,130
2017-02-26T14:15:55.174Z,130
2017-02-26T14:17:05.584Z,125
2017-02-26T14:18:16.367Z,125
2017-02-26T14:19:27.158Z,120
2017-02-26T14:20:37.954Z,120
2017-02-26T14:21:48.376Z,115
2017-02-26T14:22:58.803Z,115
2017-02-26T14:24:09.197Z,115
2017-02-26T14:25:19.601Z,110
2017-02-26T14:26:30.407Z,105
2017-02-26T14:27:41.205Z,105
2017-02-26T14:28:52.015Z,105
2017-02-26T14:30:02.809Z,100
2017-02-26T14:31:13.235Z,100
2017-02-26T14:32:24.046Z,100
2017-02-26T14:33:34.449Z,95
2017-02-26T14:34:45.241Z,95
2017-02-26T14:35:56.017Z,95
2017-02-26T14:37:06.417Z,95
2017-02-26T14:38:17.217Z,95
2017-02-26T14:39:27.628Z,95
2017-02-26T14:40:38.024Z,90
2017-02-26T14:41:48.816Z,90
2017-02-26T14:42:59.238Z,85
2017-02-26T14:44:09.682Z,85
2017-02-26T14:45:19.695Z,85
2017-02-26T14:46:30.515Z,85
2017-02-26T14:47:41.306Z,85
2017-02-26T14:48:52.087Z,85
2017-02-26T14:50:02.890Z,80
2017-02-26T14:51:12.897Z,80
2017-02-26T14:52:23.695Z,80
2017-02-26T14:53:34.509Z,80
2017-02-26T14:54:44.916Z,80
2017-02-26T14:55:55.308Z,75
2017-02-26T14:57:06.079Z,75
2017-02-26T14:58:16.490Z,70
2017-02-26T14:59:26.519Z,70
2017-02-26T15:00:36.944Z,70
2017-02-26T15:01:47.773Z,75
2017-02-26T15:02:58.597Z,70
2017-02-26T15:04:08.990Z,65
2017-02-26T15:05:19.764Z,70
2017-02-26T15:06:30.545Z,70
2017-02-26T15:07:41.339Z,65
2017-02-26T15:08:52.179Z,65
2017-02-26T15:10:02.557Z,65
2017-02-26T15:11:12.972Z,60
2017-02-26T15:12:22.999Z,60
2017-02-26T15:13:32.993Z,60
2017-02-26T15:14:43.018Z,60
2017-02-26T15:15:53.021Z,55
2017-02-26T15:17:03.038Z,55
2017-02-26T15:18:13.422Z,55
2017-02-26T15:19:23.843Z,55
2017-02-26T15:20:34.219Z,50
2017-02-26T15:21:45.001Z,50
2017-02-26T15:22:55.409Z,50
2017-02-26T15:24:06.229Z,45
2017-02-26T15:25:17.027Z,45
2017-02-26T15:26:27.820Z,45
2017-02-26T15:27:38.599Z,40
2017-02-26T15:28:49.415Z,40
2017-02-26T15:30:00.224Z,40
2017-02-26T15:31:09.835Z,40
2017-02-26T15:32:19.847Z,40
2017-02-26T15:33:30.689Z,40
2017-02-26T15:34:40.731Z,40
2017-02-26T15:35:51.157Z,40
2017-02-26T15:37:01.150Z,40
2017-02-26T15:38:11.578Z,35
2017-02-26T15:39:21.978Z,35
2017-02-26T15:40:32.443Z,35
2017-02-26T15:41:42.871Z,35
2017-02-26T15:42:53.682Z,35
2017-02-26T15:44:03.691Z,35
2017-02-26T15:45:14.501Z,30
2017-02-26T15:46:25.283Z,30
2017-02-26T15:47:35.294Z,30
2017-02-26T15:48:46.074Z,30
2017-02-26T15:49:56.492Z,30
2017-02-26T15:51:06.901Z,30
2017-02-26T15:52:17.309Z,25
2017-02-26T15:53:28.122Z,25
2017-02-26T15:54:38.927Z,25
2017-02-26T15:55:49.347Z,25
2017-02-26T15:56:59.738Z,25
2017-02-26T15:58:10.164Z,25
2017-02-26T15:59:20.154Z,20
2017-02-26T16:00:30.540Z,20
2017-02-26T16:01:41.353Z,20
2017-02-26T16:02:52.161Z,20
2017-02-26T16:04:02.551Z,15
2017-02-26T16:05:12.939Z,15
2017-02-26T16:06:23.753Z,15
2017-02-26T16:07:34.568Z,15
2017-02-26T16:08:45.371Z,10
2017-02-26T16:09:55.376Z,10
2017-02-26T16:11:06.177Z,10
2017-02-26T16:12:16.163Z,10
2017-02-26T16:13:26.967Z,10
2017-02-26T16:14:37.759Z,10
2017-02-26T16:15:48.551Z,10
2017-02-26T16:16:58.962Z,5
2017-02-26T16:18:09.764Z,5
2017-02-26T16:19:19.782Z,5
2017-02-26T16:20:30.201Z,5
2017-02-26T16:21:40.627Z,5
2017-02-26T16:22:51.486Z,5
2017-02-26T16:24:02.301Z,5
2017-02-26T16:25:12.748Z,5
2017-02-26T16:26:23.513Z,0
2017-02-26T16:27:33.888Z,0
2017-02-26T16:28:44.290Z,0
2017-02-26T16:29:55.108Z,0
2017-02-26T16:31:05.911Z,0
2017-02-26T16:32:16.731Z,0
2017-02-26T16:33:27.133Z,0
2017-02-26T16:34:37.552Z,0
2017-02-26T16:35:47.570Z,0
2017-02-26T16:36:58.338Z,0
2017-02-26T16:38:08.348Z,0
2017-02-26T16:39:19.163Z,0
2017-02-26T16:40:29.983Z,0
2017-02-26T16:41:40.796Z,0
2017-02-26T16:42:51.622Z,0
2017-02-26T16:44:01.628Z,0
2017-02-26T16:45:11.655Z,0
2017-02-26T16:46:22.492Z,0
2017-02-26T16:47:33.300Z,0
2017-02-26T16:48:43.314Z,0
2017-02-26T16:49:53.732Z,0
2017-02-26T16:51:04.135Z,0
2017-02-26T16:52:14.541Z,0
2017-02-26T16:53:25.349Z,0
2017-02-26T16:54:35.740Z,0
2017-02-26T16:55:46.154Z,0
2017-02-26T16:56:56.573Z,0
2017-02-26T16:58:07.377Z,0
2017-02-26T16:59:17.771Z,0
2017-02-26T17:00:28.586Z,0
2017-02-26T17:01:38.595Z,0
2017-02-26T17:02:49.012Z,0
2017-02-26T17:03:59.417Z,0
2017-02-26T17:05:10.225Z,0
2017-02-26T17:06:21.029Z,0
2017-02-26T17:07:31.811Z,0
2017-02-26T17:08:42.625Z,0
2017-02-26T17:09:53.011Z,0
2017-02-26T17:11:03.825Z,0
2017-02-26T17:12:14.234Z,0
2017-02-26T17:13:24.271Z,0
2017-02-26T17:14:34.684Z,0